Time;durP1;ratioP1;P1;durP2;ratioP2;P2;SDS_P1;SDS_P2;PMS_P1;PMS_P2;Temp;Humidity;BMP_temperature;BMP_pressure;BME280_temperature;BME280_humidity;BME280_pressure;Samples;Min_cycle;Max_cycle;Signal;HPM_P1;HPM_P2
2021/10/03 03:30:47;;;;;;;4.13;3.50;;;;;;;19.96;51.54;97739.16;7674623;23;20419;-77
2021/10/03 03:34:09;;;;;;;3.60;3.30;;;;;;;19.93;51.47;97724.13;6814053;29;20258;-74
2021/10/03 03:37:30;;;;;;;3.90;3.50;;;;;;;19.78;52.33;97731.69;6834541;29;20213;-74
2021/10/03 03:40:52;;;;;;;4.80;4.10;;;;;;;19.65;52.61;97738.69;6838889;28;20229;-75
2021/10/03 03:44:14;;;;;;;3.80;3.40;;;;;;;19.61;52.97;97731.31;6837875;28;20261;-75
2021/10/03 03:47:37;;;;;;;3.83;3.30;;;;;;;19.93;51.90;97723.34;6830086;28;20210;-77
2021/10/03 03:50:59;;;;;;;3.70;3.40;;;;;;;19.88;51.84;97721.44;6812093;29;20270;-74
2021/10/03 03:54:20;;;;;;;3.57;3.27;;;;;;;19.96;50.63;97723.56;6811543;29;20245;-75
2021/10/03 03:57:42;;;;;;;3.50;3.20;;;;;;;19.64;51.33;97720.63;6811216;29;20345;-74
2021/10/03 04:01:04;;;;;;;5.10;3.50;;;;;;;19.59;51.11;97720.69;6806106;29;20370;-76
2021/10/03 04:04:26;;;;;;;4.67;3.10;;;;;;;19.75;51.06;97718.63;6810588;29;20206;-75
2021/10/03 04:07:48;;;;;;;3.90;3.50;;;;;;;19.28;52.37;97710.31;6811215;29;20207;-75
2021/10/03 04:11:11;;;;;;;6.00;3.30;;;;;;;19.46;50.99;97683.06;6811269;29;20279;-75
2021/10/03 04:14:33;;;;;;;5.87;3.13;;;;;;;19.68;50.22;97701.72;6810531;29;20241;-74
2021/10/03 04:17:54;;;;;;;3.80;3.40;;;;;;;19.73;50.65;97696.19;6811346;29;20210;-77
2021/10/03 04:21:17;;;;;;;3.67;3.33;;;;;;;19.74;50.68;97701.38;6810971;29;20838;-75
2021/10/03 04:24:39;;;;;;;3.53;3.23;;;;;;;19.41;51.59;97710.44;6790358;29;20198;-75
2021/10/03 04:28:00;;;;;;;3.93;3.50;;;;;;;18.83;53.00;97697.81;6798493;29;20293;-74
2021/10/03 04:31:22;;;;;;;3.93;3.53;;;;;;;19.70;50.98;97703.06;6806129;29;20330;-75
2021/10/03 04:34:44;;;;;;;4.00;3.50;;;;;;;19.18;51.83;97662.00;6787478;29;20644;-75
2021/10/03 04:38:07;;;;;;;3.90;3.60;;;;;;;18.98;53.17;97703.16;6802160;29;20206;-75
2021/10/03 04:41:28;;;;;;;4.47;3.67;;;;;;;19.27;52.39;97673.97;6784319;29;20255;-75
2021/10/03 04:44:50;;;;;;;4.50;3.63;;;;;;;19.33;52.19;97691.16;6793835;29;20298;-75
2021/10/03 04:48:12;;;;;;;4.30;3.90;;;;;;;19.10;53.10;97678.22;6809266;29;20209;-75
2021/10/03 04:51:33;;;;;;;4.30;3.67;;;;;;;18.82;53.78;97689.91;6809801;29;20239;-75
2021/10/03 04:54:56;;;;;;;6.67;3.77;;;;;;;19.51;52.26;97682.22;6796445;29;20254;-75
2021/10/03 04:58:18;;;;;;;4.87;4.00;;;;;;;19.57;51.52;97681.06;6784159;29;20215;-76
2021/10/03 05:01:39;;;;;;;3.97;3.67;;;;;;;19.02;52.92;97678.81;6805315;29;20300;-74
2021/10/03 05:05:01;;;;;;;4.30;3.90;;;;;;;19.36;52.74;97676.91;6810110;29;20219;-76
2021/10/03 05:08:22;;;;;;;3.80;3.40;;;;;;;19.45;51.68;97675.97;6807146;29;20233;-76
2021/10/03 05:11:45;;;;;;;3.97;3.50;;;;;;;19.39;51.12;97676.34;6784446;29;20239;-74
2021/10/03 05:15:08;;;;;;;3.97;3.67;;;;;;;19.33;51.36;97663.81;6783630;29;20218;-75
2021/10/03 05:18:29;;;;;;;4.17;3.33;;;;;;;19.74;50.56;97659.56;6783827;29;20255;-75
2021/10/03 05:21:51;;;;;;;3.70;3.40;;;;;;;19.74;50.52;97665.03;6782944;29;20223;-75
2021/10/03 05:25:12;;;;;;;3.97;3.67;;;;;;;19.32;51.54;97676.66;6783675;29;20218;-74
2021/10/03 05:28:35;;;;;;;4.43;3.80;;;;;;;19.03;52.43;97672.25;6783947;29;20279;-75
2021/10/03 05:31:57;;;;;;;5.20;3.60;;;;;;;19.33;51.82;97672.03;6782965;29;20717;-75
2021/10/03 05:35:18;;;;;;;3.70;3.40;;;;;;;19.41;50.88;97674.13;6802441;29;20207;-75
2021/10/03 05:38:40;;;;;;;6.77;3.30;;;;;;;19.51;50.37;97674.03;6809697;29;20361;-75
2021/10/03 05:42:02;;;;;;;3.77;3.47;;;;;;;19.99;49.55;97678.41;6808721;29;20234;-76
2021/10/03 05:45:25;;;;;;;4.43;3.73;;;;;;;19.98;50.07;97688.50;6809638;29;20257;-75
2021/10/03 05:48:46;;;;;;;4.33;3.33;;;;;;;19.26;51.66;97680.53;6809578;29;20687;-75
2021/10/03 05:52:08;;;;;;;3.83;3.53;;;;;;;19.75;50.68;97691.25;6793947;29;20234;-77
2021/10/03 05:55:30;;;;;;;4.03;3.47;;;;;;;20.02;49.93;97678.63;6783264;29;20771;-76
2021/10/03 05:58:51;;;;;;;6.30;4.37;;;;;;;20.33;49.38;97696.31;6804213;29;20203;-75
2021/10/03 06:02:14;;;;;;;5.83;4.50;;;;;;;20.38;49.81;97687.22;6808315;29;20258;-75
2021/10/03 06:05:36;;;;;;;4.97;4.00;;;;;;;20.42;49.76;97682.78;6809338;29;20366;-78
2021/10/03 06:08:57;;;;;;;5.23;4.73;;;;;;;20.06;50.57;97698.00;6808769;29;20241;-76
2021/10/03 06:12:19;;;;;;;4.90;4.40;;;;;;;20.34;50.50;97695.19;6807671;29;20245;-76
2021/10/03 06:15:43;;;;;;;4.87;4.47;;;;;;;19.98;51.10;97680.31;6808576;29;20215;-76
2021/10/03 06:19:06;;;;;;;6.60;5.27;;;;;;;20.25;50.93;97675.06;6805237;29;20291;-77
2021/10/03 06:22:27;;;;;;;4.63;4.10;;;;;;;20.01;52.38;97659.75;6781083;29;20259;-76
2021/10/03 06:25:49;;;;;;;4.43;3.77;;;;;;;19.61;52.12;97661.06;6782450;29;20302;-75
2021/10/03 06:29:10;;;;;;;4.17;3.77;;;;;;;19.32;53.30;97684.03;6781654;29;20211;-76
2021/10/03 06:32:32;;;;;;;4.70;3.90;;;;;;;19.37;53.11;97678.53;6794960;29;20238;-75
2021/10/03 06:35:55;;;;;;;4.23;3.80;;;;;;;20.26;50.54;97682.19;6781869;29;20217;-76
2021/10/03 06:39:17;;;;;;;4.00;3.60;;;;;;;20.96;49.70;97696.78;6803556;29;20211;-76
2021/10/03 06:42:39;;;;;;;4.27;3.80;;;;;;;20.84;49.30;97672.56;6807428;29;20320;-75
2021/10/03 06:46:00;;;;;;;4.93;3.80;;;;;;;21.63;48.05;97684.09;6807619;29;20301;-76
2021/10/03 06:49:22;;;;;;;3.63;3.33;;;;;;;21.86;47.09;97674.91;6791941;29;20769;-78
2021/10/03 06:52:45;;;;;;;4.00;3.33;;;;;;;22.47;46.55;97691.78;6800318;29;20229;-77
2021/10/03 06:56:08;;;;;;;4.00;3.47;;;;;;;21.85;46.49;97689.75;6807769;29;20216;-78
2021/10/03 06:59:31;;;;;;;3.43;3.13;;;;;;;21.57;47.50;97666.13;6807610;29;20218;-75
2021/10/03 07:02:53;;;;;;;3.50;3.20;;;;;;;21.96;46.57;97674.69;6788942;29;20270;-76
2021/10/03 07:06:14;;;;;;;3.50;3.20;;;;;;;22.82;44.98;97674.47;6781066;29;20219;-75
2021/10/03 07:09:37;;;;;;;4.87;3.13;;;;;;;23.26;43.70;97684.72;6795040;29;20690;-76
2021/10/03 07:12:59;;;;;;;4.10;3.67;;;;;;;22.96;44.67;97671.69;6800533;29;20250;-77
2021/10/03 07:16:20;;;;;;;4.53;3.50;;;;;;;23.85;44.36;97675.97;6797765;29;20206;-75
2021/10/03 07:19:42;;;;;;;4.23;3.80;;;;;;;23.95;43.67;97682.03;6807741;29;20209;-75
2021/10/03 07:23:04;;;;;;;3.60;3.30;;;;;;;23.95;44.17;97698.56;6806528;29;20573;-76
2021/10/03 07:26:27;;;;;;;3.27;3.03;;;;;;;23.55;44.19;97696.06;6792485;29;20211;-77
2021/10/03 07:29:49;;;;;;;4.10;3.70;;;;;;;23.80;43.54;97679.69;6792493;29;20208;-76
2021/10/03 07:33:10;;;;;;;3.27;3.07;;;;;;;23.97;43.96;97698.25;6797756;29;20264;-76
2021/10/03 07:36:32;;;;;;;3.33;3.03;;;;;;;23.67;43.38;97661.31;6797106;29;20771;-78
2021/10/03 07:39:53;;;;;;;4.80;3.00;;;;;;;23.37;42.64;97686.88;6781052;29;20282;-76
2021/10/03 07:43:16;;;;;;;3.50;3.20;;;;;;;24.35;41.53;97697.41;6779864;29;20257;-76
2021/10/03 07:46:38;;;;;;;5.63;5.13;;;;;;;24.05;44.28;97687.28;6804027;29;20266;-75
2021/10/03 07:50:00;;;;;;;4.70;4.20;;;;;;;22.94;45.29;97665.66;6811878;29;20286;-75
2021/10/03 07:53:21;;;;;;;3.60;3.30;;;;;;;23.49;44.35;97705.59;6810752;29;20233;-75
2021/10/03 07:56:43;;;;;;;7.13;5.03;;;;;;;24.14;42.97;97688.09;6811393;29;20636;-77
2021/10/03 08:00:07;;;;;;;4.10;3.40;;;;;;;24.36;42.58;97670.69;6806302;29;20219;-78
2021/10/03 08:03:28;;;;;;;3.63;3.10;;;;;;;24.26;41.80;97648.94;6808352;29;20234;-75
2021/10/03 08:06:50;;;;;;;4.87;4.37;;;;;;;24.33;42.51;97683.16;6795968;29;20220;-78
2021/10/03 08:10:12;;;;;;;4.10;3.53;;;;;;;24.43;42.16;97710.41;6794658;29;20208;-76
2021/10/03 08:13:34;;;;;;;4.93;3.73;;;;;;;24.43;42.51;97693.84;6790232;29;20238;-77
2021/10/03 08:16:56;;;;;;;3.10;2.90;;;;;;;24.32;43.00;97683.47;6785938;29;20695;-76
2021/10/03 08:20:18;;;;;;;2.87;2.67;;;;;;;24.48;41.42;97696.47;6785440;29;20308;-76
2021/10/03 08:23:40;;;;;;;2.83;2.57;;;;;;;24.44;39.95;97695.50;6784284;29;20227;-76
2021/10/03 08:27:01;;;;;;;3.03;2.20;;;;;;;24.42;38.63;97677.66;6796807;29;20220;-76
2021/10/03 08:30:24;;;;;;;2.27;2.07;;;;;;;24.76;38.13;97680.47;6808290;29;20219;-76
2021/10/03 08:33:47;;;;;;;5.37;2.70;;;;;;;24.90;38.88;97692.97;6810039;29;20256;-75
2021/10/03 08:37:09;;;;;;;2.27;2.13;;;;;;;24.73;39.32;97667.38;6811238;29;20213;-76
2021/10/03 08:40:30;;;;;;;2.60;2.40;;;;;;;24.54;39.38;97662.13;6811217;29;20211;-77
2021/10/03 08:43:53;;;;;;;4.50;2.67;;;;;;;24.85;39.27;97670.28;6803036;29;20200;-76
2021/10/03 08:47:16;;;;;;;3.30;3.00;;;;;;;24.86;39.10;97663.63;6785092;29;20218;-76
2021/10/03 08:50:39;;;;;;;3.37;2.90;;;;;;;24.84;40.63;97669.47;6785013;29;20312;-77
2021/10/03 08:54:01;;;;;;;3.10;2.80;;;;;;;24.64;40.42;97672.88;6792475;29;20252;-77
2021/10/03 08:57:22;;;;;;;6.00;3.20;;;;;;;24.96;40.60;97679.88;6809699;29;20208;-77
2021/10/03 09:00:48;;;;;;;4.27;3.70;;;;;;;24.81;41.67;97688.59;6802236;29;20691;-76
2021/10/03 09:04:10;;;;;;;4.93;3.40;;;;;;;25.07;41.37;97693.00;6784211;29;20245;-77
2021/10/03 09:07:32;;;;;;;4.97;3.40;;;;;;;24.91;41.43;97691.06;6783961;29;20203;-80
2021/10/03 09:10:57;;;;;;;4.13;3.73;;;;;;;25.06;41.47;97702.41;6804100;29;20227;-77
2021/10/03 09:14:35;;;;;;;4.07;3.50;;;;;;;25.09;41.73;97715.56;6809442;29;20590;-76
2021/10/03 09:17:57;;;;;;;5.93;4.73;;;;;;;25.25;41.21;97700.16;6797837;29;20202;-76
2021/10/03 09:21:38;;;;;;;4.23;3.83;;;;;;;25.22;41.72;97700.78;6809447;29;20233;-76
2021/10/03 09:25:01;;;;;;;5.47;4.17;;;;;;;25.23;43.52;97718.97;6783581;29;20278;-75
2021/10/03 09:28:30;;;;;;;4.10;3.70;;;;;;;25.11;43.02;97705.00;6783265;29;20211;-76
2021/10/03 09:32:11;;;;;;;3.70;3.40;;;;;;;25.08;43.38;97727.72;6964311;23;20647;-79
2021/10/03 09:35:33;;;;;;;6.13;3.70;;;;;;;25.01;44.29;97715.56;6846553;28;20210;-80
2021/10/03 09:38:57;;;;;;;5.00;3.70;;;;;;;25.09;43.57;97700.94;6847276;28;20340;-80
2021/10/03 09:42:20;;;;;;;4.23;3.30;;;;;;;25.04;42.87;97692.81;6846541;28;20229;-78
2021/10/03 09:45:42;;;;;;;3.70;2.87;;;;;;;25.35;41.07;97693.47;6824287;28;20214;-79
2021/10/03 09:49:06;;;;;;;4.20;3.80;;;;;;;25.51;42.09;97697.34;6819833;29;20214;-79
2021/10/03 09:52:28;;;;;;;5.83;4.80;;;;;;;25.30;43.16;97702.75;6810300;29;20241;-79
2021/10/03 09:55:49;;;;;;;4.90;4.40;;;;;;;25.40;43.13;97688.63;6811026;29;20206;-77
2021/10/03 09:59:13;;;;;;;4.70;4.20;;;;;;;25.60;42.61;97687.91;6812963;29;20204;-79
2021/10/03 10:02:34;;;;;;;3.80;3.47;;;;;;;25.51;42.42;97695.41;6797735;29;20247;-78
2021/10/03 10:05:56;;;;;;;2.93;2.67;;;;;;;24.64;43.01;97663.78;6797338;29;20205;-78
2021/10/03 10:09:19;;;;;;;3.30;2.77;;;;;;;25.27;41.58;97702.59;6807401;29;20207;-78
2021/10/03 10:12:46;;;;;;;3.73;2.93;;;;;;;25.37;42.20;97691.22;6792911;29;20233;-80
2021/10/03 10:16:28;;;;;;;3.40;3.10;;;;;;;25.56;42.19;97694.44;6794402;29;20196;-80
2021/10/03 10:19:50;;;;;;;25.23;14.33;;;;;;;25.47;42.99;97702.72;6809015;29;20205;-79
2021/10/03 10:23:13;;;;;;;6.03;4.07;;;;;;;24.71;44.36;97702.72;6818781;29;20233;-78
2021/10/03 10:26:38;;;;;;;4.43;3.73;;;;;;;25.29;43.28;97700.31;6798605;29;20212;-82
2021/10/03 10:30:01;;;;;;;2.97;2.70;;;;;;;25.48;42.20;97698.81;6792881;29;20810;-80
2021/10/03 10:33:25;;;;;;;2.70;2.50;;;;;;;25.22;42.43;97703.53;6810154;29;20237;-80
2021/10/03 10:36:52;;;;;;;2.90;2.70;;;;;;;25.56;41.34;97700.78;6791617;29;20277;-79
2021/10/03 10:40:27;;;;;;;3.10;2.33;;;;;;;25.65;41.37;97704.31;6791699;29;20217;-79
2021/10/03 10:43:49;;;;;;;3.40;2.90;;;;;;;26.03;42.77;97682.28;6791956;29;20218;-79
2021/10/03 10:47:15;;;;;;;5.43;3.80;;;;;;;26.04;45.29;97687.50;6792093;29;20212;-78
2021/10/03 10:50:40;;;;;;;4.87;3.43;;;;;;;26.04;46.15;97694.97;6791684;29;20237;-79
2021/10/03 10:54:13;;;;;;;5.70;3.10;;;;;;;26.05;46.20;97685.53;6790839;29;20233;-78
2021/10/03 10:58:08;;;;;;;7.90;4.00;;;;;;;26.11;47.28;97701.59;6791564;29;20218;-79
2021/10/03 11:01:40;;;;;;;4.20;3.47;;;;;;;26.32;46.84;97696.13;6791592;29;20232;-79
2021/10/03 11:05:36;;;;;;;3.70;3.40;;;;;;;26.11;47.21;97685.00;6792543;29;20195;-79
2021/10/03 11:09:04;;;;;;;6.23;3.60;;;;;;;26.50;45.96;97686.59;6792282;29;20216;-80
2021/10/03 11:12:31;;;;;;;4.63;3.60;;;;;;;26.41;46.06;97688.59;6791660;29;20241;-79
2021/10/03 11:15:53;;;;;;;4.30;3.90;;;;;;;26.42;46.43;97682.72;6791228;29;20285;-79
2021/10/03 11:19:17;;;;;;;3.83;3.30;;;;;;;26.39;45.92;97666.00;6792487;29;20207;-79
2021/10/03 11:22:40;;;;;;;6.03;4.17;;;;;;;26.47;45.29;97657.66;6796597;29;20244;-81
2021/10/03 11:26:04;;;;;;;4.97;4.40;;;;;;;26.28;46.87;97654.53;6796991;29;20217;-80
2021/10/03 11:29:27;;;;;;;4.63;4.10;;;;;;;26.48;46.39;97681.41;6797937;29;20220;-80
2021/10/03 11:32:48;;;;;;;6.00;3.83;;;;;;;26.58;45.19;97672.75;6796769;29;20242;-79
2021/10/03 11:36:10;;;;;;;4.30;3.90;;;;;;;26.47;45.18;97652.13;6796950;29;20210;-80
2021/10/03 11:39:41;;;;;;;5.33;4.83;;;;;;;26.41;46.36;97672.00;6804512;29;20210;-80
2021/10/03 11:43:05;;;;;;;4.90;4.00;;;;;;;26.12;47.63;97658.22;6819005;29;20240;-79
2021/10/03 11:46:26;;;;;;;4.97;3.90;;;;;;;26.33;46.74;97646.06;6819072;29;20203;-80
2021/10/03 11:49:48;;;;;;;4.20;3.90;;;;;;;26.66;46.37;97663.59;6796774;29;20199;-79
2021/10/03 11:53:17;;;;;;;4.47;4.07;;;;;;;26.49;47.07;97657.34;6796328;29;20248;-79
2021/10/03 11:56:39;;;;;;;3.93;3.40;;;;;;;26.63;47.30;97674.50;6796756;29;20281;-79
2021/10/03 12:00:17;;;;;;;4.93;3.73;;;;;;;26.02;49.54;97678.69;6796994;29;20224;-79
2021/10/03 12:03:46;;;;;;;6.70;4.10;;;;;;;26.17;48.99;97680.94;6796764;29;20213;-79
2021/10/03 12:07:13;;;;;;;4.07;3.77;;;;;;;26.31;49.04;97669.66;6818603;29;20217;-80
2021/10/03 12:10:37;;;;;;;6.23;3.97;;;;;;;26.38;48.68;97667.97;6827302;29;20237;-79
2021/10/03 12:14:00;;;;;;;4.70;4.20;;;;;;;26.39;49.30;97663.25;6821132;29;20230;-79
2021/10/03 12:17:49;;;;;;;3.60;3.30;;;;;;;26.56;48.96;97654.88;6824052;29;20210;-79
2021/10/03 12:21:13;;;;;;;5.73;4.10;;;;;;;26.40;49.58;97649.09;6810429;29;20230;-79
2021/10/03 12:24:34;;;;;;;4.17;3.67;;;;;;;26.41;48.87;97647.13;6801008;29;20206;-79
2021/10/03 12:27:59;;;;;;;8.60;6.97;;;;;;;26.30;49.68;97654.22;6820306;29;20221;-79
2021/10/03 12:31:42;;;;;;;7.20;5.80;;;;;;;26.35;49.98;97651.22;6819409;29;20240;-80
2021/10/03 12:35:06;;;;;;;5.77;5.00;;;;;;;25.83;51.12;97645.13;6798389;29;20231;-79
2021/10/03 12:38:28;;;;;;;5.23;4.67;;;;;;;26.10;50.89;97635.59;6794675;29;20199;-79
2021/10/03 12:41:50;;;;;;;5.00;3.70;;;;;;;26.25;50.21;97644.13;6794527;29;20237;-79
2021/10/03 12:45:12;;;;;;;4.97;3.70;;;;;;;26.29;50.41;97647.03;6794915;29;20218;-79
2021/10/03 12:48:34;;;;;;;4.20;3.80;;;;;;;26.41;49.81;97625.00;6794505;29;20215;-81
2021/10/03 12:51:57;;;;;;;3.90;3.53;;;;;;;26.60;49.31;97642.00;6794243;29;20241;-80
2021/10/03 12:55:18;;;;;;;6.33;3.97;;;;;;;26.63;49.31;97625.56;6794546;29;20237;-79
2021/10/03 12:58:42;;;;;;;3.90;3.50;;;;;;;26.62;48.90;97645.25;6794192;29;20226;-80
2021/10/03 13:02:04;;;;;;;4.13;3.47;;;;;;;26.87;48.33;97645.03;6794150;29;20231;-79
2021/10/03 13:05:26;;;;;;;3.97;2.90;;;;;;;26.77;46.09;97631.63;6793933;29;20780;-81
2021/10/03 13:08:52;;;;;;;3.20;2.90;;;;;;;26.71;45.95;97654.28;6794095;29;20212;-80
2021/10/03 13:12:15;;;;;;;4.20;2.83;;;;;;;26.95;47.23;97666.28;6793826;29;20302;-80
2021/10/03 13:15:37;;;;;;;3.57;3.07;;;;;;;27.16;47.91;97677.38;6793610;29;20237;-82
2021/10/03 13:18:58;;;;;;;5.10;3.33;;;;;;;26.96;48.27;97667.91;6795360;29;20214;-82
2021/10/03 13:22:20;;;;;;;4.57;3.20;;;;;;;27.19;47.70;97660.91;6795076;29;20231;-79
2021/10/03 13:25:43;;;;;;;4.00;3.70;;;;;;;26.77;48.46;97628.84;6794289;29;20215;-82
2021/10/03 13:29:05;;;;;;;3.87;3.20;;;;;;;27.19;47.49;97685.00;6794723;29;20212;-80
2021/10/03 13:32:27;;;;;;;3.97;3.23;;;;;;;26.87;48.70;97686.53;6794184;29;20239;-80
2021/10/03 13:35:48;;;;;;;5.23;3.70;;;;;;;26.75;49.25;97691.19;6793969;29;20234;-81
2021/10/03 13:39:10;;;;;;;5.67;3.83;;;;;;;26.57;50.32;97709.84;6794239;29;20674;-80
2021/10/03 13:42:33;;;;;;;4.27;3.87;;;;;;;26.18;50.52;97671.50;6792492;29;20243;-80
2021/10/03 13:45:55;;;;;;;4.60;4.20;;;;;;;26.50;50.65;97725.31;6793825;29;20203;-81
2021/10/03 13:49:16;;;;;;;4.23;3.37;;;;;;;26.52;49.99;97729.34;6794019;29;20207;-83
2021/10/03 13:52:38;;;;;;;5.40;4.17;;;;;;;26.55;49.71;97733.44;6793376;29;20253;-82
2021/10/03 13:56:00;;;;;;;7.30;3.80;;;;;;;26.12;51.45;97739.13;6794407;29;20264;-83
2021/10/03 13:59:23;;;;;;;4.53;4.03;;;;;;;26.21;51.13;97745.44;6794247;29;20218;-84
2021/10/03 14:02:47;;;;;;;4.70;4.00;;;;;;;26.12;51.79;97744.66;6796175;29;20230;-85
2021/10/03 14:06:08;;;;;;;4.30;3.90;;;;;;;26.15;51.93;97745.94;6801159;29;20216;-83
2021/10/03 14:09:30;;;;;;;5.37;4.33;;;;;;;26.11;51.00;97744.97;6816342;29;20203;-84
2021/10/03 14:12:51;;;;;;;5.00;3.53;;;;;;;26.11;50.86;97753.28;6818669;29;20223;-84
2021/10/03 14:16:14;;;;;;;5.50;3.93;;;;;;;26.05;51.10;97749.88;6816057;29;20229;-83
2021/10/03 14:19:36;;;;;;;4.40;3.87;;;;;;;26.00;50.83;97746.47;6821523;29;20229;-83
2021/10/03 14:22:59;;;;;;;7.67;4.33;;;;;;;25.97;51.67;97774.78;6819390;29;20733;-82
2021/10/03 14:26:20;;;;;;;4.77;4.33;;;;;;;25.28;52.61;97770.44;6801104;29;20228;-83
2021/10/03 14:29:44;;;;;;;5.83;4.37;;;;;;;25.39;52.88;97780.00;6805258;29;20227;-83
2021/10/03 14:33:07;;;;;;;7.73;6.33;;;;;;;25.27;52.51;97741.22;6805251;29;20241;-83
2021/10/03 14:36:29;;;;;;;4.93;4.17;;;;;;;25.86;51.15;97765.19;6799126;29;20208;-83
2021/10/03 14:39:51;;;;;;;5.70;4.17;;;;;;;25.91;51.55;97768.63;6794167;29;20406;-83
2021/10/03 14:43:12;;;;;;;4.23;3.83;;;;;;;25.71;52.27;97788.59;6794532;29;20232;-82
2021/10/03 14:46:34;;;;;;;4.67;4.27;;;;;;;25.36;52.78;97778.72;6795316;29;20666;-84
2021/10/03 14:49:59;;;;;;;5.27;3.97;;;;;;;24.70;54.06;97712.94;6794398;29;20212;-83
2021/10/03 14:53:21;;;;;;;6.07;5.57;;;;;;;25.43;52.67;97778.25;6793404;29;20235;-84
2021/10/03 14:56:43;;;;;;;4.73;4.23;;;;;;;25.47;52.59;97806.78;6794234;29;20211;-84
2021/10/03 15:00:05;;;;;;;4.70;3.60;;;;;;;25.19;53.22;97808.22;6794490;29;20218;-79
2021/10/03 15:03:27;;;;;;;4.23;3.83;;;;;;;24.89;53.60;97785.13;6793919;29;20235;-81
2021/10/03 15:06:50;;;;;;;5.67;4.20;;;;;;;25.01;54.05;97834.16;6795245;29;20215;-81
2021/10/03 15:10:14;;;;;;;4.90;4.20;;;;;;;24.51;55.22;97828.13;6795064;29;20221;-83
2021/10/03 15:13:36;;;;;;;4.67;4.27;;;;;;;24.42;55.36;97843.78;6794401;29;20235;-79
2021/10/03 15:16:58;;;;;;;5.43;4.90;;;;;;;24.33;53.79;97831.94;6817641;29;20218;-83
2021/10/03 15:20:20;;;;;;;5.67;5.07;;;;;;;24.91;52.30;97851.00;6819910;29;20674;-83
2021/10/03 15:23:43;;;;;;;11.00;5.37;;;;;;;25.10;51.19;97855.09;6807735;29;20561;-83
2021/10/03 15:27:05;;;;;;;6.00;4.97;;;;;;;25.10;51.72;97863.38;6804257;29;20206;-83
2021/10/03 15:30:31;;;;;;;5.93;4.57;;;;;;;24.97;54.37;97858.81;6810086;23;20222;-80
2021/10/03 15:33:52;;;;;;;5.83;4.73;;;;;;;25.13;54.28;97873.75;6810929;29;20259;-79
2021/10/03 15:37:14;;;;;;;9.57;4.90;;;;;;;25.12;53.88;97874.91;6801480;29;20576;-79
2021/10/03 15:40:37;;;;;;;9.00;4.60;;;;;;;24.96;54.34;97892.22;6786605;29;20235;-80
2021/10/03 15:43:58;;;;;;;6.10;5.60;;;;;;;24.23;56.50;97908.50;6786257;29;20215;-79
2021/10/03 15:47:20;;;;;;;6.63;5.00;;;;;;;24.34;55.95;97921.72;6787521;29;20220;-80
2021/10/03 15:50:42;;;;;;;7.30;6.00;;;;;;;24.44;55.38;97926.16;6799960;29;20692;-80
2021/10/03 15:54:03;;;;;;;8.90;6.00;;;;;;;24.42;55.83;97929.22;6802316;29;20262;-79
2021/10/03 15:57:26;;;;;;;5.97;5.37;;;;;;;24.78;55.00;97929.13;6812745;29;20209;-79
2021/10/03 16:00:48;;;;;;;7.57;5.70;;;;;;;24.68;54.64;97932.16;6810673;29;20733;-81
2021/10/03 16:04:10;;;;;;;6.30;5.70;;;;;;;24.90;54.21;97967.97;6800371;29;20205;-85
2021/10/03 16:07:33;;;;;;;6.27;5.67;;;;;;;24.35;55.59;97967.44;6807918;29;20206;-80
2021/10/03 16:10:55;;;;;;;7.53;6.90;;;;;;;24.32;54.86;97984.63;6816768;29;20221;-80
2021/10/03 16:14:19;;;;;;;8.03;7.30;;;;;;;24.26;53.51;97985.84;6816555;29;20263;-80
2021/10/03 16:17:40;;;;;;;6.87;5.80;;;;;;;24.16;53.44;97993.53;6816703;29;20203;-80
2021/10/03 16:21:03;;;;;;;7.23;5.53;;;;;;;24.15;53.08;98006.53;6816653;29;20235;-80
2021/10/03 16:24:25;;;;;;;5.93;5.37;;;;;;;24.32;52.48;98022.38;6815480;29;20288;-80
2021/10/03 16:27:46;;;;;;;6.27;5.67;;;;;;;24.03;54.41;98014.50;6816883;29;20213;-80
2021/10/03 16:31:10;;;;;;;7.53;5.50;;;;;;;24.05;53.57;98012.25;6816817;29;20238;-80
2021/10/03 16:34:31;;;;;;;6.17;5.00;;;;;;;24.10;52.26;98023.16;6815707;29;20234;-81
2021/10/03 16:37:56;;;;;;;5.90;5.03;;;;;;;24.14;52.73;98059.94;6816538;29;20575;-80
2021/10/03 16:41:17;;;;;;;6.80;5.77;;;;;;;23.99;54.00;98059.47;6815676;29;20234;-80
2021/10/03 16:44:41;;;;;;;5.67;4.87;;;;;;;23.96;53.09;98077.44;6815355;29;20210;-79
2021/10/03 16:48:04;;;;;;;5.87;4.73;;;;;;;23.74;53.89;98080.09;6816056;29;20268;-80
2021/10/03 16:51:27;;;;;;;5.40;4.53;;;;;;;23.59;53.82;98074.91;6816883;29;20619;-80
2021/10/03 16:54:48;;;;;;;5.17;4.67;;;;;;;23.53;53.23;98059.63;6813015;29;20691;-80
2021/10/03 16:58:10;;;;;;;5.67;4.80;;;;;;;23.66;53.13;98060.75;6816804;29;20575;-80
2021/10/03 17:01:32;;;;;;;5.83;5.20;;;;;;;23.31;53.91;98098.00;6815633;29;20232;-80
2021/10/03 17:04:55;;;;;;;5.43;4.93;;;;;;;23.58;54.73;98106.31;6815781;29;20659;-78
2021/10/03 17:08:17;;;;;;;7.27;6.57;;;;;;;23.49;54.99;98119.13;6816285;29;20281;-80
2021/10/03 17:11:39;;;;;;;6.97;5.40;;;;;;;23.55;54.95;98131.66;6816249;29;20236;-80
2021/10/03 17:15:02;;;;;;;5.73;5.13;;;;;;;23.51;53.47;98107.81;6816478;29;20237;-80
2021/10/03 17:18:25;;;;;;;6.77;6.10;;;;;;;22.67;57.70;98141.97;6805937;29;20351;-80
2021/10/03 17:21:50;;;;;;;12.87;8.80;;;;;;;23.00;56.47;98151.06;6803073;29;20236;-80
2021/10/03 17:25:14;;;;;;;7.10;5.43;;;;;;;23.02;56.14;98155.16;6798485;29;20670;-78
2021/10/03 17:28:36;;;;;;;8.23;6.37;;;;;;;23.14;55.72;98161.00;6806787;29;20216;-80
2021/10/03 17:31:57;;;;;;;5.77;5.27;;;;;;;23.09;56.26;98161.13;6799629;29;20655;-78
2021/10/03 17:35:20;;;;;;;6.13;5.53;;;;;;;23.18;56.22;98175.81;6807580;29;20221;-80
2021/10/03 17:38:43;;;;;;;6.33;5.60;;;;;;;22.78;57.33;98165.44;6814912;29;20222;-79
2021/10/03 17:42:06;;;;;;;6.80;5.37;;;;;;;23.06;57.18;98197.44;6816676;29;20231;-80
2021/10/03 17:45:28;;;;;;;7.47;6.13;;;;;;;23.04;57.60;98216.19;6798482;29;20224;-79
2021/10/03 17:48:49;;;;;;;6.27;5.53;;;;;;;22.84;58.32;98223.94;6797858;29;20229;-79
2021/10/03 17:52:11;;;;;;;7.70;5.97;;;;;;;22.70;58.72;98234.84;6809188;29;20229;-79
2021/10/03 17:55:35;;;;;;;6.80;6.17;;;;;;;22.86;58.42;98243.69;6804344;29;20316;-80
2021/10/03 17:58:56;;;;;;;8.20;6.10;;;;;;;22.73;58.66;98245.25;6802600;29;20730;-80
2021/10/03 18:02:18;;;;;;;9.23;5.83;;;;;;;22.71;58.85;98220.00;6811377;29;20237;-81
2021/10/03 18:05:40;;;;;;;6.37;5.70;;;;;;;22.72;59.38;98265.59;6810459;29;20671;-80
2021/10/03 18:09:02;;;;;;;6.57;5.87;;;;;;;22.75;59.01;98269.69;6812032;29;20218;-79
2021/10/03 18:12:25;;;;;;;8.47;6.53;;;;;;;22.39;59.61;98277.56;6810310;29;20231;-80
2021/10/03 18:15:46;;;;;;;7.80;7.00;;;;;;;22.31;60.61;98291.13;6812455;29;20766;-80
2021/10/03 18:19:08;;;;;;;9.33;8.43;;;;;;;22.46;60.90;98299.19;6813409;29;20218;-79
2021/10/03 18:22:30;;;;;;;9.03;8.00;;;;;;;22.52;60.64;98307.09;6812811;29;20223;-80
2021/10/03 18:25:52;;;;;;;10.30;7.37;;;;;;;22.47;60.54;98309.91;6815099;29;20216;-80
2021/10/03 18:29:15;;;;;;;8.67;7.73;;;;;;;22.43;60.82;98327.28;6815435;29;20214;-80
2021/10/03 18:32:37;;;;;;;8.83;5.83;;;;;;;22.53;59.83;98319.72;6815541;29;20241;-78
2021/10/03 18:35:59;;;;;;;9.63;8.40;;;;;;;21.61;62.55;98352.97;6816698;29;20235;-80
2021/10/03 18:39:23;;;;;;;10.53;7.67;;;;;;;21.83;62.91;98364.38;6804612;29;20198;-80
2021/10/03 18:42:45;;;;;;;10.37;8.20;;;;;;;21.51;63.37;98363.22;6814124;29;20230;-79
2021/10/03 18:46:08;;;;;;;9.43;8.40;;;;;;;21.55;63.39;98370.59;6814008;29;20586;-79
2021/10/03 18:49:29;;;;;;;8.73;7.83;;;;;;;21.54;63.38;98333.28;6815159;29;20203;-79
2021/10/03 18:52:51;;;;;;;7.63;6.53;;;;;;;21.79;61.99;98374.31;6814611;29;20258;-79
2021/10/03 18:56:14;;;;;;;7.73;6.80;;;;;;;21.94;61.06;98374.16;6814739;29;20230;-80
2021/10/03 18:59:36;;;;;;;7.23;6.53;;;;;;;21.95;61.24;98366.75;6814372;29;20304;-79
2021/10/03 19:02:59;;;;;;;7.23;6.03;;;;;;;22.02;60.72;98387.25;6790708;29;20603;-78
2021/10/03 19:06:21;;;;;;;6.20;4.97;;;;;;;21.85;60.03;98405.25;6798723;29;20215;-80
2021/10/03 19:09:42;;;;;;;6.07;5.47;;;;;;;21.55;60.07;98406.25;6793217;29;20210;-77
2021/10/03 19:13:04;;;;;;;3.80;3.50;;;;;;;21.56;58.58;98402.44;6796584;29;20242;-79
2021/10/03 19:16:26;;;;;;;3.30;3.03;;;;;;;21.74;57.68;98431.13;6800968;29;20228;-80
2021/10/03 19:19:49;;;;;;;4.03;2.43;;;;;;;21.63;56.79;98446.81;6805733;29;20214;-80
2021/10/03 19:23:10;;;;;;;2.43;2.23;;;;;;;21.79;56.42;98426.44;6813734;29;20226;-80
2021/10/03 19:26:33;;;;;;;2.30;2.10;;;;;;;21.44;56.92;98462.31;6813764;29;20206;-80